Aviation

FTHA31 MTPP 261100
TAF MTPP 261100Z 2612/2712 10008KT 7000 FEW020
TEMPO 2614/2618 09010G20KT
PROB30 TEMPO 2700/2704 4500 -SHRA FEW022CB SCT040
BECMG 2708/2712 VRB02KT 9000 FEW020=